sensor_id;sensor_type;location;lat;lon;timestamp;temperature;humidity
54642;DHT22;40536;53.194;5.728;2023-02-02T00:01:47;6.10;99.90
54642;DHT22;40536;53.194;5.728;2023-02-02T00:04:19;6.80;99.90
54642;DHT22;40536;53.194;5.728;2023-02-02T00:06:46;6.00;99.90
54642;DHT22;40536;53.194;5.728;2023-02-02T00:09:13;7.00;99.90
54642;DHT22;40536;53.194;5.728;2023-02-02T00:11:40;6.60;99.90
54642;DHT22;40536;53.194;5.728;2023-02-02T00:14:06;6.00;99.90
54642;DHT22;40536;53.194;5.728;2023-02-02T00:16:44;6.00;99.90
54642;DHT22;40536;53.194;5.728;2023-02-02T00:19:12;6.00;99.90
54642;DHT22;40536;53.194;5.728;2023-02-02T00:21:38;7.20;99.90
54642;DHT22;40536;53.194;5.728;2023-02-02T00:24:06;7.00;99.90
54642;DHT22;40536;53.194;5.728;2023-02-02T00:26:32;6.00;99.90
54642;DHT22;40536;53.194;5.728;2023-02-02T00:28:58;7.30;99.90
54642;DHT22;40536;53.194;5.728;2023-02-02T00:31:23;6.20;99.90
54642;DHT22;40536;53.194;5.728;2023-02-02T00:33:50;7.20;99.90
54642;DHT22;40536;53.194;5.728;2023-02-02T00:36:16;6.80;99.90
54642;DHT22;40536;53.194;5.728;2023-02-02T00:38:42;7.50;99.90
54642;DHT22;40536;53.194;5.728;2023-02-02T00:41:08;6.40;99.90
54642;DHT22;40536;53.194;5.728;2023-02-02T00:43:34;5.80;99.90
54642;DHT22;40536;53.194;5.728;2023-02-02T00:45:59;7.20;99.90
54642;DHT22;40536;53.194;5.728;2023-02-02T00:48:25;5.80;99.90
54642;DHT22;40536;53.194;5.728;2023-02-02T00:50:52;5.80;99.90
54642;DHT22;40536;53.194;5.728;2023-02-02T00:53:17;5.80;99.90
54642;DHT22;40536;53.194;5.728;2023-02-02T00:55:43;6.00;99.90
54642;DHT22;40536;53.194;5.728;2023-02-02T00:58:09;7.00;99.90
54642;DHT22;40536;53.194;5.728;2023-02-02T01:00:35;5.90;99.90
54642;DHT22;40536;53.194;5.728;2023-02-02T01:03:02;7.20;99.90
54642;DHT22;40536;53.194;5.728;2023-02-02T01:05:33;6.00;99.90
54642;DHT22;40536;53.194;5.728;2023-02-02T01:07:59;6.00;99.90
54642;DHT22;40536;53.194;5.728;2023-02-02T01:10:25;6.00;99.90
54642;DHT22;40536;53.194;5.728;2023-02-02T01:12:51;6.80;99.90
54642;DHT22;40536;53.194;5.728;2023-02-02T01:15:17;6.90;99.90
54642;DHT22;40536;53.194;5.728;2023-02-02T01:17:43;6.10;99.90
54642;DHT22;40536;53.194;5.728;2023-02-02T01:20:15;6.10;99.90
54642;DHT22;40536;53.194;5.728;2023-02-02T01:22:41;6.10;99.90
54642;DHT22;40536;53.194;5.728;2023-02-02T01:25:07;6.80;99.90
54642;DHT22;40536;53.194;5.728;2023-02-02T01:27:33;6.20;99.90
54642;DHT22;40536;53.194;5.728;2023-02-02T01:29:59;7.00;99.90
54642;DHT22;40536;53.194;5.728;2023-02-02T01:32:24;7.30;99.90
54642;DHT22;40536;53.194;5.728;2023-02-02T01:34:50;6.30;99.90
54642;DHT22;40536;53.194;5.728;2023-02-02T01:37:15;6.70;99.90
54642;DHT22;40536;53.194;5.728;2023-02-02T01:39:41;7.50;99.90
54642;DHT22;40536;53.194;5.728;2023-02-02T01:42:13;6.60;99.90
54642;DHT22;40536;53.194;5.728;2023-02-02T01:47:42;6.40;99.90
54642;DHT22;40536;53.194;5.728;2023-02-02T01:50:11;7.00;99.90
54642;DHT22;40536;53.194;5.728;2023-02-02T01:52:40;7.10;99.90
54642;DHT22;40536;53.194;5.728;2023-02-02T01:55:10;6.40;99.90
54642;DHT22;40536;53.194;5.728;2023-02-02T01:57:43;6.80;99.90
54642;DHT22;40536;53.194;5.728;2023-02-02T02:00:13;7.30;99.90
54642;DHT22;40536;53.194;5.728;2023-02-02T02:02:42;6.40;99.90
54642;DHT22;40536;53.194;5.728;2023-02-02T02:05:09;7.40;99.90
54642;DHT22;40536;53.194;5.728;2023-02-02T02:07:37;6.40;99.90
54642;DHT22;40536;53.194;5.728;2023-02-02T02:10:03;7.40;99.90
54642;DHT22;40536;53.194;5.728;2023-02-02T02:12:29;6.40;99.90
54642;DHT22;40536;53.194;5.728;2023-02-02T02:14:55;6.40;99.90
54642;DHT22;40536;53.194;5.728;2023-02-02T02:17:56;6.60;99.90
54642;DHT22;40536;53.194;5.728;2023-02-02T02:20:38;6.50;99.90
54642;DHT22;40536;53.194;5.728;2023-02-02T02:23:48;6.70;99.90
54642;DHT22;40536;53.194;5.728;2023-02-02T02:40:06;6.60;99.90
54642;DHT22;40536;53.194;5.728;2023-02-02T02:42:37;6.60;99.90
54642;DHT22;40536;53.194;5.728;2023-02-02T02:45:04;6.60;99.90
54642;DHT22;40536;53.194;5.728;2023-02-02T02:47:31;6.60;99.90
54642;DHT22;40536;53.194;5.728;2023-02-02T02:49:57;6.60;99.90
54642;DHT22;40536;53.194;5.728;2023-02-02T02:52:23;6.60;99.90
54642;DHT22;40536;53.194;5.728;2023-02-02T02:54:54;8.00;99.90
54642;DHT22;40536;53.194;5.728;2023-02-02T03:06:21;6.50;99.90
54642;DHT22;40536;53.194;5.728;2023-02-02T03:08:54;6.50;99.90
54642;DHT22;40536;53.194;5.728;2023-02-02T03:11:22;6.50;99.90
54642;DHT22;40536;53.194;5.728;2023-02-02T03:13:48;7.50;99.90
54642;DHT22;40536;53.194;5.728;2023-02-02T03:16:15;7.50;99.90
54642;DHT22;40536;53.194;5.728;2023-02-02T03:18:41;7.30;99.90
54642;DHT22;40536;53.194;5.728;2023-02-02T03:21:07;7.20;99.90
54642;DHT22;40536;53.194;5.728;2023-02-02T03:23:33;6.30;99.90
54642;DHT22;40536;53.194;5.728;2023-02-02T03:25:59;6.30;99.90
54642;DHT22;40536;53.194;5.728;2023-02-02T03:28:25;7.10;99.90
54642;DHT22;40536;53.194;5.728;2023-02-02T03:30:52;6.30;99.90
54642;DHT22;40536;53.194;5.728;2023-02-02T03:33:19;7.40;99.90
54642;DHT22;40536;53.194;5.728;2023-02-02T03:35:45;7.60;99.90
54642;DHT22;40536;53.194;5.728;2023-02-02T03:38:11;6.60;99.90
54642;DHT22;40536;53.194;5.728;2023-02-02T03:40:38;6.70;99.90
54642;DHT22;40536;53.194;5.728;2023-02-02T03:43:04;6.20;99.90
54642;DHT22;40536;53.194;5.728;2023-02-02T03:45:30;7.50;99.90
54642;DHT22;40536;53.194;5.728;2023-02-02T03:47:56;6.10;99.90
54642;DHT22;40536;53.194;5.728;2023-02-02T03:50:22;6.00;99.90
54642;DHT22;40536;53.194;5.728;2023-02-02T03:52:49;7.00;99.90
54642;DHT22;40536;53.194;5.728;2023-02-02T03:55:15;5.90;99.90
54642;DHT22;40536;53.194;5.728;2023-02-02T03:57:41;5.80;99.90
54642;DHT22;40536;53.194;5.728;2023-02-02T04:00:08;5.80;99.90
54642;DHT22;40536;53.194;5.728;2023-02-02T04:02:35;5.70;99.90
54642;DHT22;40536;53.194;5.728;2023-02-02T04:05:00;7.00;99.90
54642;DHT22;40536;53.194;5.728;2023-02-02T04:07:26;5.50;99.90
54642;DHT22;40536;53.194;5.728;2023-02-02T04:09:52;5.70;99.90
54642;DHT22;40536;53.194;5.728;2023-02-02T04:12:17;5.50;99.90
54642;DHT22;40536;53.194;5.728;2023-02-02T04:14:43;6.50;99.90
54642;DHT22;40536;53.194;5.728;2023-02-02T04:17:09;5.80;99.90
54642;DHT22;40536;53.194;5.728;2023-02-02T04:19:35;5.40;99.90
54642;DHT22;40536;53.194;5.728;2023-02-02T04:22:01;5.40;99.90
54642;DHT22;40536;53.194;5.728;2023-02-02T04:24:27;6.00;99.90
54642;DHT22;40536;53.194;5.728;2023-02-02T04:26:52;5.40;99.90
54642;DHT22;40536;53.194;5.728;2023-02-02T04:29:18;5.40;99.90
54642;DHT22;40536;53.194;5.728;2023-02-02T04:31:43;5.50;99.90
54642;DHT22;40536;53.194;5.728;2023-02-02T04:34:09;6.70;99.90
54642;DHT22;40536;53.194;5.728;2023-02-02T04:36:35;5.30;99.90
54642;DHT22;40536;53.194;5.728;2023-02-02T04:39:01;5.30;99.90
54642;DHT22;40536;53.194;5.728;2023-02-02T04:41:26;5.30;99.90
54642;DHT22;40536;53.194;5.728;2023-02-02T04:43:52;6.10;99.90
54642;DHT22;40536;53.194;5.728;2023-02-02T04:46:18;6.20;99.90
54642;DHT22;40536;53.194;5.728;2023-02-02T04:48:46;6.20;99.90
54642;DHT22;40536;53.194;5.728;2023-02-02T04:51:13;6.30;99.90
54642;DHT22;40536;53.194;5.728;2023-02-02T04:53:40;5.40;99.90
54642;DHT22;40536;53.194;5.728;2023-02-02T04:56:15;5.40;99.90
54642;DHT22;40536;53.194;5.728;2023-02-02T04:58:42;5.40;99.90
54642;DHT22;40536;53.194;5.728;2023-02-02T05:01:15;5.40;99.90
54642;DHT22;40536;53.194;5.728;2023-02-02T05:03:41;6.70;99.90
54642;DHT22;40536;53.194;5.728;2023-02-02T05:06:07;5.40;99.90
54642;DHT22;40536;53.194;5.728;2023-02-02T05:08:34;6.50;99.90
54642;DHT22;40536;53.194;5.728;2023-02-02T05:11:00;5.50;99.90
54642;DHT22;40536;53.194;5.728;2023-02-02T05:13:25;5.50;99.90
54642;DHT22;40536;53.194;5.728;2023-02-02T05:15:52;5.50;99.90
54642;DHT22;40536;53.194;5.728;2023-02-02T05:18:18;5.90;99.90
54642;DHT22;40536;53.194;5.728;2023-02-02T05:20:44;5.60;99.90
54642;DHT22;40536;53.194;5.728;2023-02-02T05:23:09;6.80;99.90
54642;DHT22;40536;53.194;5.728;2023-02-02T05:25:35;5.60;99.90
54642;DHT22;40536;53.194;5.728;2023-02-02T05:28:01;5.60;99.90
54642;DHT22;40536;53.194;5.728;2023-02-02T05:30:26;6.50;99.90
54642;DHT22;40536;53.194;5.728;2023-02-02T05:32:52;6.90;99.90
54642;DHT22;40536;53.194;5.728;2023-02-02T05:35:17;6.30;99.90
54642;DHT22;40536;53.194;5.728;2023-02-02T05:37:43;6.50;99.90
54642;DHT22;40536;53.194;5.728;2023-02-02T05:40:09;5.90;99.90
54642;DHT22;40536;53.194;5.728;2023-02-02T05:42:35;5.50;99.90
54642;DHT22;40536;53.194;5.728;2023-02-02T05:45:01;6.60;99.90
54642;DHT22;40536;53.194;5.728;2023-02-02T05:47:27;5.50;99.90
54642;DHT22;40536;53.194;5.728;2023-02-02T05:49:52;5.60;99.90
54642;DHT22;40536;53.194;5.728;2023-02-02T05:52:21;6.70;99.90
54642;DHT22;40536;53.194;5.728;2023-02-02T05:54:47;5.60;99.90
54642;DHT22;40536;53.194;5.728;2023-02-02T05:57:13;5.60;99.90
54642;DHT22;40536;53.194;5.728;2023-02-02T05:59:39;5.60;99.90
54642;DHT22;40536;53.194;5.728;2023-02-02T06:02:04;6.80;99.90
54642;DHT22;40536;53.194;5.728;2023-02-02T06:04:30;5.50;99.90
54642;DHT22;40536;53.194;5.728;2023-02-02T06:06:56;6.80;99.90
54642;DHT22;40536;53.194;5.728;2023-02-02T06:09:21;6.90;99.90
54642;DHT22;40536;53.194;5.728;2023-02-02T06:11:48;5.60;99.90
54642;DHT22;40536;53.194;5.728;2023-02-02T06:14:14;6.60;99.90
54642;DHT22;40536;53.194;5.728;2023-02-02T06:16:39;5.80;99.90
54642;DHT22;40536;53.194;5.728;2023-02-02T06:19:05;6.10;99.90
54642;DHT22;40536;53.194;5.728;2023-02-02T06:21:31;6.00;99.90
54642;DHT22;40536;53.194;5.728;2023-02-02T06:23:57;5.60;99.90
54642;DHT22;40536;53.194;5.728;2023-02-02T06:26:24;5.60;99.90
54642;DHT22;40536;53.194;5.728;2023-02-02T06:28:52;5.60;99.90
54642;DHT22;40536;53.194;5.728;2023-02-02T06:31:18;5.60;99.90
54642;DHT22;40536;53.194;5.728;2023-02-02T06:33:45;6.50;99.90
54642;DHT22;40536;53.194;5.728;2023-02-02T06:36:11;5.60;99.90
54642;DHT22;40536;53.194;5.728;2023-02-02T06:38:37;5.60;99.90
54642;DHT22;40536;53.194;5.728;2023-02-02T06:41:02;5.60;99.90
54642;DHT22;40536;53.194;5.728;2023-02-02T06:43:29;5.60;99.90
54642;DHT22;40536;53.194;5.728;2023-02-02T06:45:56;5.60;99.90
54642;DHT22;40536;53.194;5.728;2023-02-02T06:48:22;5.90;99.90
54642;DHT22;40536;53.194;5.728;2023-02-02T06:50:48;6.50;99.90
54642;DHT22;40536;53.194;5.728;2023-02-02T06:53:14;6.20;99.90
54642;DHT22;40536;53.194;5.728;2023-02-02T06:55:40;6.40;99.90
54642;DHT22;40536;53.194;5.728;2023-02-02T06:58:06;5.60;99.90
54642;DHT22;40536;53.194;5.728;2023-02-02T07:00:31;6.10;99.90
54642;DHT22;40536;53.194;5.728;2023-02-02T07:02:57;6.50;99.90
54642;DHT22;40536;53.194;5.728;2023-02-02T07:05:23;5.60;99.90
54642;DHT22;40536;53.194;5.728;2023-02-02T07:07:50;5.60;99.90
54642;DHT22;40536;53.194;5.728;2023-02-02T07:10:16;5.60;99.90
54642;DHT22;40536;53.194;5.728;2023-02-02T07:12:43;5.60;99.90
54642;DHT22;40536;53.194;5.728;2023-02-02T07:15:09;5.60;99.90
54642;DHT22;40536;53.194;5.728;2023-02-02T07:17:35;5.60;99.90
54642;DHT22;40536;53.194;5.728;2023-02-02T07:20:00;5.60;99.90
54642;DHT22;40536;53.194;5.728;2023-02-02T07:22:26;6.40;99.90
54642;DHT22;40536;53.194;5.728;2023-02-02T07:24:52;5.60;99.90
54642;DHT22;40536;53.194;5.728;2023-02-02T07:27:17;6.70;99.90
54642;DHT22;40536;53.194;5.728;2023-02-02T07:29:43;6.50;99.90
54642;DHT22;40536;53.194;5.728;2023-02-02T07:32:09;5.80;99.90
54642;DHT22;40536;53.194;5.728;2023-02-02T07:34:37;5.60;99.90
54642;DHT22;40536;53.194;5.728;2023-02-02T07:37:03;5.90;99.90
54642;DHT22;40536;53.194;5.728;2023-02-02T07:39:29;5.60;99.90
54642;DHT22;40536;53.194;5.728;2023-02-02T07:41:54;5.60;99.90
54642;DHT22;40536;53.194;5.728;2023-02-02T07:44:20;6.70;99.90
54642;DHT22;40536;53.194;5.728;2023-02-02T07:46:46;7.00;99.90
54642;DHT22;40536;53.194;5.728;2023-02-02T07:49:13;5.60;99.90
54642;DHT22;40536;53.194;5.728;2023-02-02T07:51:40;6.80;99.90
54642;DHT22;40536;53.194;5.728;2023-02-02T07:54:06;6.50;99.90
54642;DHT22;40536;53.194;5.728;2023-02-02T07:56:32;5.70;99.90
54642;DHT22;40536;53.194;5.728;2023-02-02T07:58:58;5.70;99.90
54642;DHT22;40536;53.194;5.728;2023-02-02T08:01:25;5.70;99.90
54642;DHT22;40536;53.194;5.728;2023-02-02T08:03:52;6.90;99.90
54642;DHT22;40536;53.194;5.728;2023-02-02T08:06:23;5.70;99.90
54642;DHT22;40536;53.194;5.728;2023-02-02T08:08:49;6.90;99.90
54642;DHT22;40536;53.194;5.728;2023-02-02T08:11:18;6.90;99.90
54642;DHT22;40536;53.194;5.728;2023-02-02T08:13:47;7.00;99.90
54642;DHT22;40536;53.194;5.728;2023-02-02T08:16:13;6.70;99.90
54642;DHT22;40536;53.194;5.728;2023-02-02T08:18:38;5.80;99.90
54642;DHT22;40536;53.194;5.728;2023-02-02T08:21:06;6.90;99.90
54642;DHT22;40536;53.194;5.728;2023-02-02T08:23:33;5.80;99.90
54642;DHT22;40536;53.194;5.728;2023-02-02T08:26:26;5.90;99.90
54642;DHT22;40536;53.194;5.728;2023-02-02T08:28:55;6.60;99.90
54642;DHT22;40536;53.194;5.728;2023-02-02T08:31:24;7.00;99.90
54642;DHT22;40536;53.194;5.728;2023-02-02T08:33:50;7.10;99.90
54642;DHT22;40536;53.194;5.728;2023-02-02T08:36:18;7.00;99.90
54642;DHT22;40536;53.194;5.728;2023-02-02T08:38:44;6.50;99.90
54642;DHT22;40536;53.194;5.728;2023-02-02T08:41:12;7.20;99.90
54642;DHT22;40536;53.194;5.728;2023-02-02T08:43:39;7.20;99.90
54642;DHT22;40536;53.194;5.728;2023-02-02T08:46:05;6.50;99.90
54642;DHT22;40536;53.194;5.728;2023-02-02T08:48:32;7.10;99.90
54642;DHT22;40536;53.194;5.728;2023-02-02T08:50:58;6.10;99.90
54642;DHT22;40536;53.194;5.728;2023-02-02T08:53:24;6.40;99.90
54642;DHT22;40536;53.194;5.728;2023-02-02T08:56:02;6.40;99.90
54642;DHT22;40536;53.194;5.728;2023-02-02T08:58:29;6.10;99.90
54642;DHT22;40536;53.194;5.728;2023-02-02T09:01:06;6.30;99.90
54642;DHT22;40536;53.194;5.728;2023-02-02T09:03:32;6.20;99.90
54642;DHT22;40536;53.194;5.728;2023-02-02T09:06:06;6.90;99.90
54642;DHT22;40536;53.194;5.728;2023-02-02T09:08:32;6.30;99.90
54642;DHT22;40536;53.194;5.728;2023-02-02T09:11:03;6.40;99.90
54642;DHT22;40536;53.194;5.728;2023-02-02T09:13:29;7.50;99.90
54642;DHT22;40536;53.194;5.728;2023-02-02T09:15:58;7.70;99.90
54642;DHT22;40536;53.194;5.728;2023-02-02T09:18:24;6.40;99.90
54642;DHT22;40536;53.194;5.728;2023-02-02T09:20:50;6.60;99.90
54642;DHT22;40536;53.194;5.728;2023-02-02T09:23:15;6.90;99.90
54642;DHT22;40536;53.194;5.728;2023-02-02T09:25:41;7.00;99.90
54642;DHT22;40536;53.194;5.728;2023-02-02T09:28:07;7.10;99.90
54642;DHT22;40536;53.194;5.728;2023-02-02T09:30:32;7.00;99.90
54642;DHT22;40536;53.194;5.728;2023-02-02T09:32:58;6.80;99.90
54642;DHT22;40536;53.194;5.728;2023-02-02T09:35:23;7.30;99.90
54642;DHT22;40536;53.194;5.728;2023-02-02T09:37:49;7.30;99.90
54642;DHT22;40536;53.194;5.728;2023-02-02T09:40:17;7.00;99.90
54642;DHT22;40536;53.194;5.728;2023-02-02T09:43:05;6.60;99.90
54642;DHT22;40536;53.194;5.728;2023-02-02T09:48:15;6.70;99.90
54642;DHT22;40536;53.194;5.728;2023-02-02T09:50:52;6.60;99.90
54642;DHT22;40536;53.194;5.728;2023-02-02T09:53:48;6.80;99.90
54642;DHT22;40536;53.194;5.728;2023-02-02T09:56:25;6.70;99.90
54642;DHT22;40536;53.194;5.728;2023-02-02T09:58:54;6.70;99.90
54642;DHT22;40536;53.194;5.728;2023-02-02T10:01:29;6.90;99.90
54642;DHT22;40536;53.194;5.728;2023-02-02T10:06:40;6.80;99.90
54642;DHT22;40536;53.194;5.728;2023-02-02T10:09:27;7.70;99.90
54642;DHT22;40536;53.194;5.728;2023-02-02T10:14:38;6.80;99.90
54642;DHT22;40536;53.194;5.728;2023-02-02T10:17:36;7.00;99.90
54642;DHT22;40536;53.194;5.728;2023-02-02T10:20:32;6.80;99.90
54642;DHT22;40536;53.194;5.728;2023-02-02T10:26:13;6.80;99.90
54642;DHT22;40536;53.194;5.728;2023-02-02T10:34:55;6.90;99.90
54642;DHT22;40536;53.194;5.728;2023-02-02T10:37:46;8.10;99.90
54642;DHT22;40536;53.194;5.728;2023-02-02T10:46:09;7.80;99.90
54642;DHT22;40536;53.194;5.728;2023-02-02T10:48:43;8.10;99.90
54642;DHT22;40536;53.194;5.728;2023-02-02T10:51:28;7.50;99.90
54642;DHT22;40536;53.194;5.728;2023-02-02T10:53:56;7.00;99.90
54642;DHT22;40536;53.194;5.728;2023-02-02T10:56:47;7.80;99.90
54642;DHT22;40536;53.194;5.728;2023-02-02T10:59:29;8.10;99.90
54642;DHT22;40536;53.194;5.728;2023-02-02T11:01:56;7.60;99.90
54642;DHT22;40536;53.194;5.728;2023-02-02T11:04:23;7.90;99.90
54642;DHT22;40536;53.194;5.728;2023-02-02T11:07:09;8.00;99.90
54642;DHT22;40536;53.194;5.728;2023-02-02T11:09:39;7.10;99.90
54642;DHT22;40536;53.194;5.728;2023-02-02T11:12:19;8.00;99.90
54642;DHT22;40536;53.194;5.728;2023-02-02T11:15:01;7.20;99.90
54642;DHT22;40536;53.194;5.728;2023-02-02T11:17:30;7.20;99.90
54642;DHT22;40536;53.194;5.728;2023-02-02T11:19:56;8.10;99.90
54642;DHT22;40536;53.194;5.728;2023-02-02T11:22:30;7.90;99.90
54642;DHT22;40536;53.194;5.728;2023-02-02T11:25:00;7.20;99.90
54642;DHT22;40536;53.194;5.728;2023-02-02T11:29:58;7.20;99.90
54642;DHT22;40536;53.194;5.728;2023-02-02T11:37:38;7.20;99.90
54642;DHT22;40536;53.194;5.728;2023-02-02T11:42:53;7.20;99.90
54642;DHT22;40536;53.194;5.728;2023-02-02T11:45:32;7.20;99.90
54642;DHT22;40536;53.194;5.728;2023-02-02T11:48:18;7.10;99.90
54642;DHT22;40536;53.194;5.728;2023-02-02T11:50:45;7.10;99.90
54642;DHT22;40536;53.194;5.728;2023-02-02T11:53:41;8.30;99.90
54642;DHT22;40536;53.194;5.728;2023-02-02T11:56:21;7.10;99.90
54642;DHT22;40536;53.194;5.728;2023-02-02T11:58:49;8.10;99.90
54642;DHT22;40536;53.194;5.728;2023-02-02T12:01:36;7.90;99.90
54642;DHT22;40536;53.194;5.728;2023-02-02T12:04:23;7.60;99.90
54642;DHT22;40536;53.194;5.728;2023-02-02T12:06:49;7.80;99.90
54642;DHT22;40536;53.194;5.728;2023-02-02T12:09:23;7.20;99.90
54642;DHT22;40536;53.194;5.728;2023-02-02T12:12:09;7.20;99.90
54642;DHT22;40536;53.194;5.728;2023-02-02T12:14:53;7.40;99.90
54642;DHT22;40536;53.194;5.728;2023-02-02T12:17:42;7.90;99.90
54642;DHT22;40536;53.194;5.728;2023-02-02T12:23:25;7.40;99.90
54642;DHT22;40536;53.194;5.728;2023-02-02T12:26:04;7.50;99.90
54642;DHT22;40536;53.194;5.728;2023-02-02T12:36:55;7.70;99.90
54642;DHT22;40536;53.194;5.728;2023-02-02T12:39:32;7.70;99.90
54642;DHT22;40536;53.194;5.728;2023-02-02T12:48:25;7.80;99.90
54642;DHT22;40536;53.194;5.728;2023-02-02T12:51:09;7.80;99.90
54642;DHT22;40536;53.194;5.728;2023-02-02T12:56:46;7.70;99.90
54642;DHT22;40536;53.194;5.728;2023-02-02T13:07:46;7.70;99.90
54642;DHT22;40536;53.194;5.728;2023-02-02T13:10:26;8.70;99.90
54642;DHT22;40536;53.194;5.728;2023-02-02T13:12:59;7.70;99.90
54642;DHT22;40536;53.194;5.728;2023-02-02T13:15:38;8.10;99.90
54642;DHT22;40536;53.194;5.728;2023-02-02T13:18:21;8.20;99.90
54642;DHT22;40536;53.194;5.728;2023-02-02T13:21:00;7.70;99.90
54642;DHT22;40536;53.194;5.728;2023-02-02T13:23:41;7.60;99.90
54642;DHT22;40536;53.194;5.728;2023-02-02T13:26:11;8.70;99.90
54642;DHT22;40536;53.194;5.728;2023-02-02T13:32:10;7.60;99.90
54642;DHT22;40536;53.194;5.728;2023-02-02T13:34:43;7.70;99.90
54642;DHT22;40536;53.194;5.728;2023-02-02T13:39:58;7.70;99.90
54642;DHT22;40536;53.194;5.728;2023-02-02T13:42:44;8.40;99.90
54642;DHT22;40536;53.194;5.728;2023-02-02T13:48:24;7.80;99.90
54642;DHT22;40536;53.194;5.728;2023-02-02T13:53:50;8.10;99.90
54642;DHT22;40536;53.194;5.728;2023-02-02T13:56:56;7.80;99.90
54642;DHT22;40536;53.194;5.728;2023-02-02T13:59:52;7.80;99.90
54642;DHT22;40536;53.194;5.728;2023-02-02T14:02:32;7.70;99.90
54642;DHT22;40536;53.194;5.728;2023-02-02T14:05:04;7.70;99.90
54642;DHT22;40536;53.194;5.728;2023-02-02T14:07:42;7.70;99.90
54642;DHT22;40536;53.194;5.728;2023-02-02T14:10:39;7.70;99.90
54642;DHT22;40536;53.194;5.728;2023-02-02T14:15:58;8.90;99.90
54642;DHT22;40536;53.194;5.728;2023-02-02T14:24:03;7.60;99.90
54642;DHT22;40536;53.194;5.728;2023-02-02T14:26:50;7.70;99.90
54642;DHT22;40536;53.194;5.728;2023-02-02T14:34:42;7.60;99.90
54642;DHT22;40536;53.194;5.728;2023-02-02T14:42:25;7.70;99.90
54642;DHT22;40536;53.194;5.728;2023-02-02T14:45:27;8.40;99.90
54642;DHT22;40536;53.194;5.728;2023-02-02T14:47:53;7.70;99.90
54642;DHT22;40536;53.194;5.728;2023-02-02T14:56:10;7.80;99.90
54642;DHT22;40536;53.194;5.728;2023-02-02T15:09:24;8.90;99.90
54642;DHT22;40536;53.194;5.728;2023-02-02T15:14:40;7.90;99.90
54642;DHT22;40536;53.194;5.728;2023-02-02T15:17:10;7.80;99.90
54642;DHT22;40536;53.194;5.728;2023-02-02T15:19:39;8.20;99.90
54642;DHT22;40536;53.194;5.728;2023-02-02T15:22:42;8.80;99.90
54642;DHT22;40536;53.194;5.728;2023-02-02T15:25:18;7.70;99.90
54642;DHT22;40536;53.194;5.728;2023-02-02T15:27:51;7.70;99.90
54642;DHT22;40536;53.194;5.728;2023-02-02T15:30:21;7.70;99.90
54642;DHT22;40536;53.194;5.728;2023-02-02T15:32:49;7.70;99.90
54642;DHT22;40536;53.194;5.728;2023-02-02T15:35:25;7.70;99.90
54642;DHT22;40536;53.194;5.728;2023-02-02T15:37:58;7.60;99.90
54642;DHT22;40536;53.194;5.728;2023-02-02T15:40:26;8.70;99.90
54642;DHT22;40536;53.194;5.728;2023-02-02T15:42:57;8.10;99.90
54642;DHT22;40536;53.194;5.728;2023-02-02T15:47:57;7.80;99.90
54642;DHT22;40536;53.194;5.728;2023-02-02T15:50:24;7.50;99.90
54642;DHT22;40536;53.194;5.728;2023-02-02T15:52:51;7.50;99.90
54642;DHT22;40536;53.194;5.728;2023-02-02T15:55:31;7.50;99.90
54642;DHT22;40536;53.194;5.728;2023-02-02T15:57:58;7.80;99.90
54642;DHT22;40536;53.194;5.728;2023-02-02T16:00:34;8.30;99.90
54642;DHT22;40536;53.194;5.728;2023-02-02T16:08:03;8.60;99.90
54642;DHT22;40536;53.194;5.728;2023-02-02T16:10:30;7.40;99.90
54642;DHT22;40536;53.194;5.728;2023-02-02T16:12:56;7.40;99.90
54642;DHT22;40536;53.194;5.728;2023-02-02T16:15:25;7.70;99.90
54642;DHT22;40536;53.194;5.728;2023-02-02T16:18:17;7.40;99.90
54642;DHT22;40536;53.194;5.728;2023-02-02T16:20:43;7.40;99.90
54642;DHT22;40536;53.194;5.728;2023-02-02T16:23:13;8.60;99.90
54642;DHT22;40536;53.194;5.728;2023-02-02T16:25:48;8.10;99.90
54642;DHT22;40536;53.194;5.728;2023-02-02T16:28:17;7.40;99.90
54642;DHT22;40536;53.194;5.728;2023-02-02T16:30:43;8.20;99.90
54642;DHT22;40536;53.194;5.728;2023-02-02T16:33:33;7.50;99.90
54642;DHT22;40536;53.194;5.728;2023-02-02T16:35:59;7.70;99.90
54642;DHT22;40536;53.194;5.728;2023-02-02T16:38:33;8.10;99.90
54642;DHT22;40536;53.194;5.728;2023-02-02T16:41:23;8.30;99.90
54642;DHT22;40536;53.194;5.728;2023-02-02T16:43:49;8.40;99.90
54642;DHT22;40536;53.194;5.728;2023-02-02T16:49:23;7.50;99.90
54642;DHT22;40536;53.194;5.728;2023-02-02T16:52:15;7.90;99.90
54642;DHT22;40536;53.194;5.728;2023-02-02T16:54:53;7.50;99.90
54642;DHT22;40536;53.194;5.728;2023-02-02T16:57:26;7.50;99.90
54642;DHT22;40536;53.194;5.728;2023-02-02T16:59:55;7.50;99.90
54642;DHT22;40536;53.194;5.728;2023-02-02T17:02:37;7.50;99.90
54642;DHT22;40536;53.194;5.728;2023-02-02T17:05:23;7.50;99.90
54642;DHT22;40536;53.194;5.728;2023-02-02T17:07:58;7.40;99.90
54642;DHT22;40536;53.194;5.728;2023-02-02T17:10:26;7.40;99.90
54642;DHT22;40536;53.194;5.728;2023-02-02T17:12:56;7.40;99.90
54642;DHT22;40536;53.194;5.728;2023-02-02T17:15:29;7.80;99.90
54642;DHT22;40536;53.194;5.728;2023-02-02T17:17:57;7.40;99.90
54642;DHT22;40536;53.194;5.728;2023-02-02T17:20:23;7.90;99.90
54642;DHT22;40536;53.194;5.728;2023-02-02T17:22:53;7.40;99.90
54642;DHT22;40536;53.194;5.728;2023-02-02T17:25:37;7.40;99.90
54642;DHT22;40536;53.194;5.728;2023-02-02T17:28:17;7.50;99.90
54642;DHT22;40536;53.194;5.728;2023-02-02T17:30:46;7.40;99.90
54642;DHT22;40536;53.194;5.728;2023-02-02T17:33:14;8.30;99.90
54642;DHT22;40536;53.194;5.728;2023-02-02T17:35:40;7.50;99.90
54642;DHT22;40536;53.194;5.728;2023-02-02T17:38:06;8.50;99.90
54642;DHT22;40536;53.194;5.728;2023-02-02T17:40:32;7.50;99.90
54642;DHT22;40536;53.194;5.728;2023-02-02T17:42:58;8.10;99.90
54642;DHT22;40536;53.194;5.728;2023-02-02T17:45:28;8.50;99.90
54642;DHT22;40536;53.194;5.728;2023-02-02T17:47:54;7.50;99.90
54642;DHT22;40536;53.194;5.728;2023-02-02T17:50:19;7.90;99.90
54642;DHT22;40536;53.194;5.728;2023-02-02T17:52:46;8.40;99.90
54642;DHT22;40536;53.194;5.728;2023-02-02T17:55:24;8.10;99.90
54642;DHT22;40536;53.194;5.728;2023-02-02T17:57:52;7.90;99.90
54642;DHT22;40536;53.194;5.728;2023-02-02T18:00:20;7.60;99.90
54642;DHT22;40536;53.194;5.728;2023-02-02T18:02:48;7.60;99.90
54642;DHT22;40536;53.194;5.728;2023-02-02T18:05:15;7.60;99.90
54642;DHT22;40536;53.194;5.728;2023-02-02T18:07:41;7.60;99.90
54642;DHT22;40536;53.194;5.728;2023-02-02T18:10:10;7.60;99.90
54642;DHT22;40536;53.194;5.728;2023-02-02T18:12:36;7.60;99.90
54642;DHT22;40536;53.194;5.728;2023-02-02T18:15:03;7.70;99.90
54642;DHT22;40536;53.194;5.728;2023-02-02T18:17:30;7.70;99.90
54642;DHT22;40536;53.194;5.728;2023-02-02T18:19:55;8.20;99.90
54642;DHT22;40536;53.194;5.728;2023-02-02T18:22:22;7.70;99.90
54642;DHT22;40536;53.194;5.728;2023-02-02T18:24:48;7.70;99.90
54642;DHT22;40536;53.194;5.728;2023-02-02T18:27:14;7.70;99.90
54642;DHT22;40536;53.194;5.728;2023-02-02T18:29:40;8.10;99.90
54642;DHT22;40536;53.194;5.728;2023-02-02T18:32:07;8.00;99.90
54642;DHT22;40536;53.194;5.728;2023-02-02T18:34:33;8.30;99.90